sensor_id;sensor_type;location;lat;lon;timestamp;P1;durP1;ratioP1;P2;durP2;ratioP2
61756;SDS011;57225;61.460;24.060;2023-05-07T00:01:18;4.80;;;1.67;;
61756;SDS011;57225;61.460;24.060;2023-05-07T00:04:02;2.08;;;1.30;;
61756;SDS011;57225;61.460;24.060;2023-05-07T00:06:47;2.90;;;1.50;;
61756;SDS011;57225;61.460;24.060;2023-05-07T00:09:31;2.45;;;1.20;;
61756;SDS011;57225;61.460;24.060;2023-05-07T00:12:16;3.55;;;1.45;;
61756;SDS011;57225;61.460;24.060;2023-05-07T00:15:02;3.40;;;1.40;;
61756;SDS011;57225;61.460;24.060;2023-05-07T00:17:47;3.85;;;1.70;;
61756;SDS011;57225;61.460;24.060;2023-05-07T00:20:31;5.63;;;1.40;;
61756;SDS011;57225;61.460;24.060;2023-05-07T00:23:25;2.63;;;1.48;;
61756;SDS011;57225;61.460;24.060;2023-05-07T00:26:10;9.90;;;1.95;;
61756;SDS011;57225;61.460;24.060;2023-05-07T00:28:54;7.78;;;2.08;;
61756;SDS011;57225;61.460;24.060;2023-05-07T00:31:38;6.28;;;1.45;;
61756;SDS011;57225;61.460;24.060;2023-05-07T00:34:23;3.80;;;2.10;;
61756;SDS011;57225;61.460;24.060;2023-05-07T00:37:08;2.72;;;1.60;;
61756;SDS011;57225;61.460;24.060;2023-05-07T00:39:52;4.85;;;2.05;;
61756;SDS011;57225;61.460;24.060;2023-05-07T00:42:37;4.32;;;1.70;;
61756;SDS011;57225;61.460;24.060;2023-05-07T00:45:22;7.95;;;1.65;;
61756;SDS011;57225;61.460;24.060;2023-05-07T00:48:09;4.38;;;1.77;;
61756;SDS011;57225;61.460;24.060;2023-05-07T00:50:54;7.90;;;1.80;;
61756;SDS011;57225;61.460;24.060;2023-05-07T00:53:38;4.63;;;1.85;;
61756;SDS011;57225;61.460;24.060;2023-05-07T00:56:23;3.92;;;1.85;;
61756;SDS011;57225;61.460;24.060;2023-05-07T00:59:09;5.80;;;1.70;;
61756;SDS011;57225;61.460;24.060;2023-05-07T01:01:54;5.10;;;1.70;;
61756;SDS011;57225;61.460;24.060;2023-05-07T01:04:39;6.80;;;1.88;;
61756;SDS011;57225;61.460;24.060;2023-05-07T01:07:24;2.88;;;1.52;;
61756;SDS011;57225;61.460;24.060;2023-05-07T01:10:08;6.25;;;1.52;;
61756;SDS011;57225;61.460;24.060;2023-05-07T01:12:54;2.65;;;1.48;;
61756;SDS011;57225;61.460;24.060;2023-05-07T01:15:38;3.08;;;1.90;;
61756;SDS011;57225;61.460;24.060;2023-05-07T01:18:24;5.72;;;1.35;;
61756;SDS011;57225;61.460;24.060;2023-05-07T01:21:11;4.63;;;1.58;;
61756;SDS011;57225;61.460;24.060;2023-05-07T01:23:55;6.35;;;1.80;;
61756;SDS011;57225;61.460;24.060;2023-05-07T01:26:42;4.85;;;1.88;;
61756;SDS011;57225;61.460;24.060;2023-05-07T01:29:27;3.55;;;1.90;;
61756;SDS011;57225;61.460;24.060;2023-05-07T01:32:12;5.50;;;2.00;;
61756;SDS011;57225;61.460;24.060;2023-05-07T01:34:58;4.18;;;2.00;;
61756;SDS011;57225;61.460;24.060;2023-05-07T01:37:46;5.20;;;2.17;;
61756;SDS011;57225;61.460;24.060;2023-05-07T01:40:32;5.15;;;2.30;;
61756;SDS011;57225;61.460;24.060;2023-05-07T01:43:18;7.18;;;2.35;;
61756;SDS011;57225;61.460;24.060;2023-05-07T01:46:03;5.25;;;2.45;;
61756;SDS011;57225;61.460;24.060;2023-05-07T01:48:48;4.25;;;2.30;;
61756;SDS011;57225;61.460;24.060;2023-05-07T01:51:34;5.38;;;2.00;;
61756;SDS011;57225;61.460;24.060;2023-05-07T01:54:19;4.25;;;2.40;;
61756;SDS011;57225;61.460;24.060;2023-05-07T01:57:10;3.30;;;2.25;;
61756;SDS011;57225;61.460;24.060;2023-05-07T01:59:54;4.07;;;2.10;;
61756;SDS011;57225;61.460;24.060;2023-05-07T02:02:39;7.05;;;2.00;;
61756;SDS011;57225;61.460;24.060;2023-05-07T02:05:23;3.67;;;1.55;;
61756;SDS011;57225;61.460;24.060;2023-05-07T02:08:07;3.25;;;1.80;;
61756;SDS011;57225;61.460;24.060;2023-05-07T02:10:52;3.25;;;1.48;;
61756;SDS011;57225;61.460;24.060;2023-05-07T02:13:37;5.60;;;2.40;;
61756;SDS011;57225;61.460;24.060;2023-05-07T02:16:22;5.03;;;2.22;;
61756;SDS011;57225;61.460;24.060;2023-05-07T02:19:07;8.60;;;2.20;;
61756;SDS011;57225;61.460;24.060;2023-05-07T02:21:52;2.25;;;1.67;;
61756;SDS011;57225;61.460;24.060;2023-05-07T02:24:36;3.28;;;2.00;;
61756;SDS011;57225;61.460;24.060;2023-05-07T02:27:21;3.85;;;1.60;;
61756;SDS011;57225;61.460;24.060;2023-05-07T02:30:07;2.72;;;1.60;;
61756;SDS011;57225;61.460;24.060;2023-05-07T02:32:52;5.38;;;1.75;;
61756;SDS011;57225;61.460;24.060;2023-05-07T02:35:36;3.13;;;1.50;;
61756;SDS011;57225;61.460;24.060;2023-05-07T02:38:21;4.25;;;1.90;;
61756;SDS011;57225;61.460;24.060;2023-05-07T02:41:06;3.63;;;1.60;;
61756;SDS011;57225;61.460;24.060;2023-05-07T02:43:50;10.38;;;2.00;;
61756;SDS011;57225;61.460;24.060;2023-05-07T02:46:35;5.43;;;1.98;;
61756;SDS011;57225;61.460;24.060;2023-05-07T02:49:19;3.78;;;1.77;;
61756;SDS011;57225;61.460;24.060;2023-05-07T02:52:04;5.78;;;1.88;;
61756;SDS011;57225;61.460;24.060;2023-05-07T02:54:49;3.90;;;1.60;;
61756;SDS011;57225;61.460;24.060;2023-05-07T02:57:33;4.25;;;1.77;;
61756;SDS011;57225;61.460;24.060;2023-05-07T03:00:18;5.32;;;1.65;;
61756;SDS011;57225;61.460;24.060;2023-05-07T03:03:03;3.15;;;1.73;;
61756;SDS011;57225;61.460;24.060;2023-05-07T03:05:49;4.30;;;1.83;;
61756;SDS011;57225;61.460;24.060;2023-05-07T03:08:33;3.00;;;1.65;;
61756;SDS011;57225;61.460;24.060;2023-05-07T03:11:17;3.17;;;1.50;;
61756;SDS011;57225;61.460;24.060;2023-05-07T03:14:02;2.15;;;1.50;;
61756;SDS011;57225;61.460;24.060;2023-05-07T03:16:46;2.70;;;1.45;;
61756;SDS011;57225;61.460;24.060;2023-05-07T03:19:31;8.20;;;2.10;;
61756;SDS011;57225;61.460;24.060;2023-05-07T03:22:15;4.45;;;1.67;;
61756;SDS011;57225;61.460;24.060;2023-05-07T03:25:00;4.13;;;2.08;;
61756;SDS011;57225;61.460;24.060;2023-05-07T03:27:45;9.85;;;2.00;;
61756;SDS011;57225;61.460;24.060;2023-05-07T03:30:29;3.38;;;1.55;;
61756;SDS011;57225;61.460;24.060;2023-05-07T03:33:14;7.05;;;1.75;;
61756;SDS011;57225;61.460;24.060;2023-05-07T03:35:58;6.13;;;1.80;;
61756;SDS011;57225;61.460;24.060;2023-05-07T03:38:43;4.30;;;1.73;;
61756;SDS011;57225;61.460;24.060;2023-05-07T03:41:28;3.35;;;1.48;;
61756;SDS011;57225;61.460;24.060;2023-05-07T03:44:13;3.80;;;1.83;;
61756;SDS011;57225;61.460;24.060;2023-05-07T03:46:57;3.70;;;1.58;;
61756;SDS011;57225;61.460;24.060;2023-05-07T03:49:42;4.35;;;1.40;;
61756;SDS011;57225;61.460;24.060;2023-05-07T03:52:26;2.38;;;1.45;;
61756;SDS011;57225;61.460;24.060;2023-05-07T03:55:11;4.25;;;1.50;;
61756;SDS011;57225;61.460;24.060;2023-05-07T03:57:55;4.70;;;1.85;;
61756;SDS011;57225;61.460;24.060;2023-05-07T04:00:40;5.43;;;1.60;;
61756;SDS011;57225;61.460;24.060;2023-05-07T04:03:24;3.58;;;1.48;;
61756;SDS011;57225;61.460;24.060;2023-05-07T04:06:08;5.00;;;1.58;;
61756;SDS011;57225;61.460;24.060;2023-05-07T04:08:53;1.90;;;1.20;;
61756;SDS011;57225;61.460;24.060;2023-05-07T04:11:37;1.92;;;1.30;;
61756;SDS011;57225;61.460;24.060;2023-05-07T04:14:24;4.50;;;1.33;;
61756;SDS011;57225;61.460;24.060;2023-05-07T04:17:11;3.42;;;1.52;;
61756;SDS011;57225;61.460;24.060;2023-05-07T04:19:55;3.53;;;1.48;;
61756;SDS011;57225;61.460;24.060;2023-05-07T04:22:40;4.85;;;1.55;;
61756;SDS011;57225;61.460;24.060;2023-05-07T04:25:33;6.20;;;1.60;;
61756;SDS011;57225;61.460;24.060;2023-05-07T04:28:19;7.78;;;1.80;;
61756;SDS011;57225;61.460;24.060;2023-05-07T04:31:04;4.28;;;1.70;;
61756;SDS011;57225;61.460;24.060;2023-05-07T04:33:49;3.28;;;1.60;;
61756;SDS011;57225;61.460;24.060;2023-05-07T04:36:34;6.53;;;1.52;;
61756;SDS011;57225;61.460;24.060;2023-05-07T04:39:19;2.65;;;1.52;;
61756;SDS011;57225;61.460;24.060;2023-05-07T04:42:03;2.28;;;1.30;;
61756;SDS011;57225;61.460;24.060;2023-05-07T04:44:48;2.55;;;1.30;;
61756;SDS011;57225;61.460;24.060;2023-05-07T04:47:37;4.38;;;1.02;;
61756;SDS011;57225;61.460;24.060;2023-05-07T04:50:21;1.85;;;0.93;;
61756;SDS011;57225;61.460;24.060;2023-05-07T04:53:08;1.30;;;1.00;;
61756;SDS011;57225;61.460;24.060;2023-05-07T04:55:56;1.33;;;0.90;;
61756;SDS011;57225;61.460;24.060;2023-05-07T04:58:41;1.60;;;0.80;;
61756;SDS011;57225;61.460;24.060;2023-05-07T05:01:25;1.30;;;0.80;;
61756;SDS011;57225;61.460;24.060;2023-05-07T05:04:10;2.63;;;0.88;;
61756;SDS011;57225;61.460;24.060;2023-05-07T05:06:54;3.05;;;1.00;;
61756;SDS011;57225;61.460;24.060;2023-05-07T05:09:39;5.40;;;0.98;;
61756;SDS011;57225;61.460;24.060;2023-05-07T05:12:23;2.05;;;0.82;;
61756;SDS011;57225;61.460;24.060;2023-05-07T05:15:08;1.38;;;0.80;;
61756;SDS011;57225;61.460;24.060;2023-05-07T05:17:54;3.35;;;1.00;;
61756;SDS011;57225;61.460;24.060;2023-05-07T05:20:38;2.58;;;0.80;;
61756;SDS011;57225;61.460;24.060;2023-05-07T05:23:41;3.78;;;0.82;;
61756;SDS011;57225;61.460;24.060;2023-05-07T05:26:25;3.63;;;0.85;;
61756;SDS011;57225;61.460;24.060;2023-05-07T05:29:10;4.40;;;1.00;;
61756;SDS011;57225;61.460;24.060;2023-05-07T05:31:55;4.72;;;1.35;;
61756;SDS011;57225;61.460;24.060;2023-05-07T05:34:39;1.98;;;1.15;;
61756;SDS011;57225;61.460;24.060;2023-05-07T05:37:24;6.25;;;1.00;;
61756;SDS011;57225;61.460;24.060;2023-05-07T05:40:10;3.42;;;1.20;;
61756;SDS011;57225;61.460;24.060;2023-05-07T05:42:55;2.25;;;1.13;;
61756;SDS011;57225;61.460;24.060;2023-05-07T05:45:39;2.10;;;1.20;;
61756;SDS011;57225;61.460;24.060;2023-05-07T05:48:24;1.33;;;0.88;;
61756;SDS011;57225;61.460;24.060;2023-05-07T05:51:09;3.15;;;1.10;;
61756;SDS011;57225;61.460;24.060;2023-05-07T05:53:53;1.60;;;0.88;;
61756;SDS011;57225;61.460;24.060;2023-05-07T05:56:38;6.05;;;1.10;;
61756;SDS011;57225;61.460;24.060;2023-05-07T05:59:23;1.75;;;0.70;;
61756;SDS011;57225;61.460;24.060;2023-05-07T06:02:08;1.38;;;0.73;;
61756;SDS011;57225;61.460;24.060;2023-05-07T06:04:53;1.83;;;0.90;;
61756;SDS011;57225;61.460;24.060;2023-05-07T06:07:37;1.85;;;0.85;;
61756;SDS011;57225;61.460;24.060;2023-05-07T06:10:22;0.82;;;0.70;;
61756;SDS011;57225;61.460;24.060;2023-05-07T06:13:09;4.88;;;0.90;;
61756;SDS011;57225;61.460;24.060;2023-05-07T06:15:53;3.80;;;1.10;;
61756;SDS011;57225;61.460;24.060;2023-05-07T06:18:38;2.80;;;0.60;;
61756;SDS011;57225;61.460;24.060;2023-05-07T06:21:22;1.58;;;0.80;;
61756;SDS011;57225;61.460;24.060;2023-05-07T06:24:07;4.10;;;0.90;;
61756;SDS011;57225;61.460;24.060;2023-05-07T06:26:52;3.80;;;0.82;;
61756;SDS011;57225;61.460;24.060;2023-05-07T06:29:37;5.88;;;1.05;;
61756;SDS011;57225;61.460;24.060;2023-05-07T06:32:21;7.05;;;1.45;;
61756;SDS011;57225;61.460;24.060;2023-05-07T06:35:06;2.35;;;0.90;;
61756;SDS011;57225;61.460;24.060;2023-05-07T06:37:52;1.15;;;0.70;;
61756;SDS011;57225;61.460;24.060;2023-05-07T06:40:37;4.38;;;0.90;;
61756;SDS011;57225;61.460;24.060;2023-05-07T06:43:24;4.43;;;1.05;;
61756;SDS011;57225;61.460;24.060;2023-05-07T06:46:08;3.25;;;1.00;;
61756;SDS011;57225;61.460;24.060;2023-05-07T06:48:52;2.08;;;0.80;;
61756;SDS011;57225;61.460;24.060;2023-05-07T06:51:38;1.98;;;0.90;;
61756;SDS011;57225;61.460;24.060;2023-05-07T06:54:22;5.22;;;1.20;;
61756;SDS011;57225;61.460;24.060;2023-05-07T06:57:07;4.65;;;0.90;;
61756;SDS011;57225;61.460;24.060;2023-05-07T06:59:51;3.72;;;0.90;;
61756;SDS011;57225;61.460;24.060;2023-05-07T07:02:37;5.00;;;1.13;;
61756;SDS011;57225;61.460;24.060;2023-05-07T07:05:23;1.73;;;0.75;;
61756;SDS011;57225;61.460;24.060;2023-05-07T07:08:08;4.32;;;1.00;;
61756;SDS011;57225;61.460;24.060;2023-05-07T07:10:53;2.78;;;0.80;;
61756;SDS011;57225;61.460;24.060;2023-05-07T07:13:38;3.08;;;0.77;;
61756;SDS011;57225;61.460;24.060;2023-05-07T07:16:23;1.95;;;0.95;;
61756;SDS011;57225;61.460;24.060;2023-05-07T07:19:08;8.75;;;0.90;;
61756;SDS011;57225;61.460;24.060;2023-05-07T07:21:54;2.65;;;0.85;;
61756;SDS011;57225;61.460;24.060;2023-05-07T07:24:38;2.03;;;0.85;;
61756;SDS011;57225;61.460;24.060;2023-05-07T07:27:23;1.50;;;0.73;;
61756;SDS011;57225;61.460;24.060;2023-05-07T07:30:07;3.17;;;1.08;;
61756;SDS011;57225;61.460;24.060;2023-05-07T07:32:52;1.50;;;0.88;;
61756;SDS011;57225;61.460;24.060;2023-05-07T07:35:37;1.95;;;0.80;;
61756;SDS011;57225;61.460;24.060;2023-05-07T07:38:21;2.67;;;0.93;;
61756;SDS011;57225;61.460;24.060;2023-05-07T07:41:07;2.70;;;0.77;;
61756;SDS011;57225;61.460;24.060;2023-05-07T07:43:52;2.92;;;1.20;;
61756;SDS011;57225;61.460;24.060;2023-05-07T07:46:36;12.07;;;0.90;;
61756;SDS011;57225;61.460;24.060;2023-05-07T07:49:21;3.95;;;0.80;;
61756;SDS011;57225;61.460;24.060;2023-05-07T07:52:05;3.72;;;0.73;;
61756;SDS011;57225;61.460;24.060;2023-05-07T07:54:50;3.17;;;0.85;;
61756;SDS011;57225;61.460;24.060;2023-05-07T07:57:34;1.73;;;0.98;;
61756;SDS011;57225;61.460;24.060;2023-05-07T08:00:19;3.97;;;0.90;;
61756;SDS011;57225;61.460;24.060;2023-05-07T08:03:03;5.90;;;0.88;;
61756;SDS011;57225;61.460;24.060;2023-05-07T08:05:48;1.98;;;1.17;;
61756;SDS011;57225;61.460;24.060;2023-05-07T08:08:35;1.70;;;1.10;;
61756;SDS011;57225;61.460;24.060;2023-05-07T08:11:19;2.08;;;0.85;;
61756;SDS011;57225;61.460;24.060;2023-05-07T08:14:06;9.02;;;1.13;;
61756;SDS011;57225;61.460;24.060;2023-05-07T08:16:51;5.40;;;0.95;;
61756;SDS011;57225;61.460;24.060;2023-05-07T08:19:36;1.98;;;0.60;;
61756;SDS011;57225;61.460;24.060;2023-05-07T08:22:20;8.40;;;1.23;;
61756;SDS011;57225;61.460;24.060;2023-05-07T08:25:05;9.85;;;1.40;;
61756;SDS011;57225;61.460;24.060;2023-05-07T08:27:50;4.57;;;1.00;;
61756;SDS011;57225;61.460;24.060;2023-05-07T08:30:34;5.28;;;1.25;;
61756;SDS011;57225;61.460;24.060;2023-05-07T08:33:19;10.52;;;1.58;;
61756;SDS011;57225;61.460;24.060;2023-05-07T08:36:04;3.72;;;0.93;;
61756;SDS011;57225;61.460;24.060;2023-05-07T08:38:54;25.25;;;2.15;;
61756;SDS011;57225;61.460;24.060;2023-05-07T08:41:38;7.85;;;0.95;;
61756;SDS011;57225;61.460;24.060;2023-05-07T08:44:24;2.63;;;0.93;;
61756;SDS011;57225;61.460;24.060;2023-05-07T08:47:12;2.97;;;1.00;;
61756;SDS011;57225;61.460;24.060;2023-05-07T08:49:57;4.43;;;1.10;;
61756;SDS011;57225;61.460;24.060;2023-05-07T08:52:42;1.90;;;0.85;;
61756;SDS011;57225;61.460;24.060;2023-05-07T08:55:26;4.28;;;1.20;;
61756;SDS011;57225;61.460;24.060;2023-05-07T08:58:14;7.03;;;1.00;;
61756;SDS011;57225;61.460;24.060;2023-05-07T09:00:59;5.03;;;1.23;;
61756;SDS011;57225;61.460;24.060;2023-05-07T09:03:51;10.48;;;1.42;;
61756;SDS011;57225;61.460;24.060;2023-05-07T09:06:37;1.45;;;0.80;;
61756;SDS011;57225;61.460;24.060;2023-05-07T09:09:25;4.68;;;1.35;;
61756;SDS011;57225;61.460;24.060;2023-05-07T09:12:11;2.25;;;1.00;;
61756;SDS011;57225;61.460;24.060;2023-05-07T09:14:55;4.05;;;1.10;;
61756;SDS011;57225;61.460;24.060;2023-05-07T09:17:40;2.22;;;0.90;;
61756;SDS011;57225;61.460;24.060;2023-05-07T09:20:26;6.63;;;1.00;;
61756;SDS011;57225;61.460;24.060;2023-05-07T09:26:23;3.35;;;0.82;;
61756;SDS011;57225;61.460;24.060;2023-05-07T09:29:09;2.85;;;0.85;;
61756;SDS011;57225;61.460;24.060;2023-05-07T09:31:54;2.05;;;0.70;;
61756;SDS011;57225;61.460;24.060;2023-05-07T09:34:39;2.45;;;0.93;;
61756;SDS011;57225;61.460;24.060;2023-05-07T09:37:25;3.25;;;0.80;;
61756;SDS011;57225;61.460;24.060;2023-05-07T09:40:31;1.75;;;0.70;;
61756;SDS011;57225;61.460;24.060;2023-05-07T09:43:15;4.18;;;0.93;;
61756;SDS011;57225;61.460;24.060;2023-05-07T09:46:01;6.00;;;1.10;;
61756;SDS011;57225;61.460;24.060;2023-05-07T09:48:47;1.20;;;0.90;;
61756;SDS011;57225;61.460;24.060;2023-05-07T09:51:43;4.72;;;1.00;;
61756;SDS011;57225;61.460;24.060;2023-05-07T09:54:35;8.40;;;1.15;;
61756;SDS011;57225;61.460;24.060;2023-05-07T09:57:22;3.03;;;1.08;;
61756;SDS011;57225;61.460;24.060;2023-05-07T10:00:08;2.42;;;1.02;;
61756;SDS011;57225;61.460;24.060;2023-05-07T10:02:54;1.95;;;1.05;;
61756;SDS011;57225;61.460;24.060;2023-05-07T10:05:41;1.30;;;0.88;;
61756;SDS011;57225;61.460;24.060;2023-05-07T10:08:30;3.33;;;1.20;;
61756;SDS011;57225;61.460;24.060;2023-05-07T10:11:15;6.63;;;1.25;;
61756;SDS011;57225;61.460;24.060;2023-05-07T10:14:05;3.30;;;1.00;;
61756;SDS011;57225;61.460;24.060;2023-05-07T10:16:50;2.05;;;0.75;;
61756;SDS011;57225;61.460;24.060;2023-05-07T10:19:37;3.88;;;1.05;;
61756;SDS011;57225;61.460;24.060;2023-05-07T10:22:22;3.28;;;1.13;;
61756;SDS011;57225;61.460;24.060;2023-05-07T10:25:14;4.20;;;1.00;;
61756;SDS011;57225;61.460;24.060;2023-05-07T10:28:05;2.92;;;0.90;;
61756;SDS011;57225;61.460;24.060;2023-05-07T10:30:58;2.53;;;1.00;;
61756;SDS011;57225;61.460;24.060;2023-05-07T10:33:54;5.65;;;1.20;;
61756;SDS011;57225;61.460;24.060;2023-05-07T10:36:42;6.63;;;1.20;;
61756;SDS011;57225;61.460;24.060;2023-05-07T10:39:27;2.63;;;0.77;;
61756;SDS011;57225;61.460;24.060;2023-05-07T10:42:13;4.45;;;0.95;;
61756;SDS011;57225;61.460;24.060;2023-05-07T10:44:58;3.38;;;1.00;;
61756;SDS011;57225;61.460;24.060;2023-05-07T10:50:53;7.30;;;1.23;;
61756;SDS011;57225;61.460;24.060;2023-05-07T10:56:54;3.92;;;0.90;;
61756;SDS011;57225;61.460;24.060;2023-05-07T10:59:38;2.67;;;1.08;;
61756;SDS011;57225;61.460;24.060;2023-05-07T11:03:12;2.22;;;1.17;;
61756;SDS011;57225;61.460;24.060;2023-05-07T11:05:43;2.67;;;1.10;;
61756;SDS011;57225;61.460;24.060;2023-05-07T11:08:42;6.50;;;1.42;;
61756;SDS011;57225;61.460;24.060;2023-05-07T11:11:57;3.50;;;1.00;;
61756;SDS011;57225;61.460;24.060;2023-05-07T11:17:27;3.72;;;0.90;;
61756;SDS011;57225;61.460;24.060;2023-05-07T11:20:15;2.85;;;1.08;;
61756;SDS011;57225;61.460;24.060;2023-05-07T11:23:00;4.47;;;1.27;;
61756;SDS011;57225;61.460;24.060;2023-05-07T11:25:45;3.00;;;1.10;;
61756;SDS011;57225;61.460;24.060;2023-05-07T11:28:32;4.68;;;1.10;;
61756;SDS011;57225;61.460;24.060;2023-05-07T11:31:25;1.67;;;0.90;;
61756;SDS011;57225;61.460;24.060;2023-05-07T11:34:12;1.83;;;1.00;;
61756;SDS011;57225;61.460;24.060;2023-05-07T11:36:58;6.43;;;1.10;;
61756;SDS011;57225;61.460;24.060;2023-05-07T11:39:43;3.22;;;1.10;;
61756;SDS011;57225;61.460;24.060;2023-05-07T11:42:27;3.55;;;1.10;;
61756;SDS011;57225;61.460;24.060;2023-05-07T11:45:14;3.40;;;1.20;;
61756;SDS011;57225;61.460;24.060;2023-05-07T11:48:09;2.45;;;1.08;;
61756;SDS011;57225;61.460;24.060;2023-05-07T11:53:48;2.65;;;1.00;;
61756;SDS011;57225;61.460;24.060;2023-05-07T11:56:34;6.70;;;1.13;;
61756;SDS011;57225;61.460;24.060;2023-05-07T11:59:19;4.22;;;0.90;;
61756;SDS011;57225;61.460;24.060;2023-05-07T12:02:03;2.50;;;1.05;;
61756;SDS011;57225;61.460;24.060;2023-05-07T12:04:48;1.88;;;0.85;;
61756;SDS011;57225;61.460;24.060;2023-05-07T12:07:35;5.05;;;1.23;;
61756;SDS011;57225;61.460;24.060;2023-05-07T12:10:20;2.60;;;1.07;;
61756;SDS011;57225;61.460;24.060;2023-05-07T12:13:13;2.38;;;0.70;;
61756;SDS011;57225;61.460;24.060;2023-05-07T12:16:07;3.03;;;1.10;;
61756;SDS011;57225;61.460;24.060;2023-05-07T12:18:53;6.07;;;0.82;;
61756;SDS011;57225;61.460;24.060;2023-05-07T12:21:39;4.20;;;1.10;;
61756;SDS011;57225;61.460;24.060;2023-05-07T12:24:24;5.35;;;1.38;;
61756;SDS011;57225;61.460;24.060;2023-05-07T12:27:09;4.40;;;0.80;;
61756;SDS011;57225;61.460;24.060;2023-05-07T12:29:53;4.30;;;1.08;;
61756;SDS011;57225;61.460;24.060;2023-05-07T12:32:38;4.97;;;1.10;;
61756;SDS011;57225;61.460;24.060;2023-05-07T12:38:23;4.55;;;0.90;;
61756;SDS011;57225;61.460;24.060;2023-05-07T12:41:10;2.13;;;1.00;;
61756;SDS011;57225;61.460;24.060;2023-05-07T12:43:56;4.07;;;1.17;;
61756;SDS011;57225;61.460;24.060;2023-05-07T12:46:41;6.70;;;1.00;;
61756;SDS011;57225;61.460;24.060;2023-05-07T12:49:26;5.25;;;1.00;;
61756;SDS011;57225;61.460;24.060;2023-05-07T12:52:10;4.20;;;1.10;;
61756;SDS011;57225;61.460;24.060;2023-05-07T12:54:55;4.13;;;0.90;;
61756;SDS011;57225;61.460;24.060;2023-05-07T12:57:41;3.53;;;1.00;;
61756;SDS011;57225;61.460;24.060;2023-05-07T13:00:34;4.53;;;1.27;;
61756;SDS011;57225;61.460;24.060;2023-05-07T13:03:23;2.55;;;0.88;;
61756;SDS011;57225;61.460;24.060;2023-05-07T13:06:09;2.17;;;1.00;;
61756;SDS011;57225;61.460;24.060;2023-05-07T13:08:55;1.50;;;0.98;;
61756;SDS011;57225;61.460;24.060;2023-05-07T13:11:40;7.25;;;1.02;;
61756;SDS011;57225;61.460;24.060;2023-05-07T13:14:24;2.72;;;1.00;;
61756;SDS011;57225;61.460;24.060;2023-05-07T13:17:09;2.40;;;0.80;;
61756;SDS011;57225;61.460;24.060;2023-05-07T13:19:53;5.97;;;1.02;;
61756;SDS011;57225;61.460;24.060;2023-05-07T13:22:38;6.43;;;1.63;;
61756;SDS011;57225;61.460;24.060;2023-05-07T13:25:24;4.78;;;1.17;;
61756;SDS011;57225;61.460;24.060;2023-05-07T13:28:10;1.27;;;0.88;;
61756;SDS011;57225;61.460;24.060;2023-05-07T13:30:54;3.35;;;1.05;;
61756;SDS011;57225;61.460;24.060;2023-05-07T13:33:39;4.32;;;1.10;;
61756;SDS011;57225;61.460;24.060;2023-05-07T13:36:23;3.05;;;1.20;;
61756;SDS011;57225;61.460;24.060;2023-05-07T13:39:07;1.67;;;1.00;;
61756;SDS011;57225;61.460;24.060;2023-05-07T13:41:52;4.93;;;1.02;;
61756;SDS011;57225;61.460;24.060;2023-05-07T13:44:37;5.28;;;1.02;;
61756;SDS011;57225;61.460;24.060;2023-05-07T13:47:21;3.17;;;1.35;;
61756;SDS011;57225;61.460;24.060;2023-05-07T13:50:06;5.10;;;1.55;;
61756;SDS011;57225;61.460;24.060;2023-05-07T13:52:52;4.72;;;1.08;;
61756;SDS011;57225;61.460;24.060;2023-05-07T13:55:36;4.28;;;1.20;;
61756;SDS011;57225;61.460;24.060;2023-05-07T13:58:21;2.13;;;1.08;;
61756;SDS011;57225;61.460;24.060;2023-05-07T14:01:05;4.75;;;0.80;;
61756;SDS011;57225;61.460;24.060;2023-05-07T14:03:50;2.55;;;0.70;;
61756;SDS011;57225;61.460;24.060;2023-05-07T14:06:34;11.80;;;1.80;;
61756;SDS011;57225;61.460;24.060;2023-05-07T14:09:19;7.10;;;0.93;;
61756;SDS011;57225;61.460;24.060;2023-05-07T14:12:03;1.83;;;1.00;;
61756;SDS011;57225;61.460;24.060;2023-05-07T14:14:48;4.35;;;1.00;;
61756;SDS011;57225;61.460;24.060;2023-05-07T14:17:33;2.33;;;1.05;;
61756;SDS011;57225;61.460;24.060;2023-05-07T14:20:21;5.65;;;1.20;;
61756;SDS011;57225;61.460;24.060;2023-05-07T14:23:05;5.63;;;1.45;;
61756;SDS011;57225;61.460;24.060;2023-05-07T14:25:58;4.00;;;1.48;;
61756;SDS011;57225;61.460;24.060;2023-05-07T14:28:43;4.35;;;1.38;;
61756;SDS011;57225;61.460;24.060;2023-05-07T14:31:30;4.60;;;1.15;;
61756;SDS011;57225;61.460;24.060;2023-05-07T14:34:14;3.58;;;1.30;;
61756;SDS011;57225;61.460;24.060;2023-05-07T14:37:00;9.75;;;1.35;;
61756;SDS011;57225;61.460;24.060;2023-05-07T14:39:45;4.55;;;1.38;;
61756;SDS011;57225;61.460;24.060;2023-05-07T14:42:29;8.75;;;1.70;;
61756;SDS011;57225;61.460;24.060;2023-05-07T14:45:15;3.53;;;1.35;;
61756;SDS011;57225;61.460;24.060;2023-05-07T14:47:59;3.03;;;1.25;;
61756;SDS011;57225;61.460;24.060;2023-05-07T14:50:46;3.75;;;1.25;;
61756;SDS011;57225;61.460;24.060;2023-05-07T14:53:31;1.63;;;1.25;;
61756;SDS011;57225;61.460;24.060;2023-05-07T14:56:16;3.15;;;1.27;;
61756;SDS011;57225;61.460;24.060;2023-05-07T14:59:02;1.60;;;1.00;;
61756;SDS011;57225;61.460;24.060;2023-05-07T15:01:47;3.47;;;1.13;;
61756;SDS011;57225;61.460;24.060;2023-05-07T15:04:32;3.95;;;1.27;;
61756;SDS011;57225;61.460;24.060;2023-05-07T15:07:17;3.70;;;1.13;;
61756;SDS011;57225;61.460;24.060;2023-05-07T15:10:01;3.85;;;1.30;;
61756;SDS011;57225;61.460;24.060;2023-05-07T15:12:46;3.00;;;1.23;;
61756;SDS011;57225;61.460;24.060;2023-05-07T15:15:31;6.00;;;1.38;;
61756;SDS011;57225;61.460;24.060;2023-05-07T15:18:15;2.97;;;1.17;;
61756;SDS011;57225;61.460;24.060;2023-05-07T15:21:00;1.45;;;0.90;;
61756;SDS011;57225;61.460;24.060;2023-05-07T15:23:45;9.07;;;1.50;;
61756;SDS011;57225;61.460;24.060;2023-05-07T15:26:30;4.18;;;1.48;;
61756;SDS011;57225;61.460;24.060;2023-05-07T15:29:14;5.85;;;1.20;;
61756;SDS011;57225;61.460;24.060;2023-05-07T15:31:59;2.20;;;1.10;;
61756;SDS011;57225;61.460;24.060;2023-05-07T15:34:43;5.97;;;1.30;;
61756;SDS011;57225;61.460;24.060;2023-05-07T15:37:28;4.88;;;1.08;;
61756;SDS011;57225;61.460;24.060;2023-05-07T15:40:14;1.75;;;1.05;;
61756;SDS011;57225;61.460;24.060;2023-05-07T15:43:00;4.78;;;1.73;;
61756;SDS011;57225;61.460;24.060;2023-05-07T15:45:48;2.97;;;0.90;;
61756;SDS011;57225;61.460;24.060;2023-05-07T15:48:32;1.52;;;1.10;;
61756;SDS011;57225;61.460;24.060;2023-05-07T15:51:19;3.92;;;1.35;;
61756;SDS011;57225;61.460;24.060;2023-05-07T15:54:05;3.53;;;1.25;;
61756;SDS011;57225;61.460;24.060;2023-05-07T15:56:50;2.28;;;1.00;;
61756;SDS011;57225;61.460;24.060;2023-05-07T15:59:34;5.05;;;1.55;;
61756;SDS011;57225;61.460;24.060;2023-05-07T16:02:19;3.92;;;1.10;;
61756;SDS011;57225;61.460;24.060;2023-05-07T16:05:04;4.30;;;1.02;;
61756;SDS011;57225;61.460;24.060;2023-05-07T16:07:51;2.53;;;1.10;;
61756;SDS011;57225;61.460;24.060;2023-05-07T16:10:36;2.78;;;1.30;;
61756;SDS011;57225;61.460;24.060;2023-05-07T16:13:21;1.58;;;1.00;;
61756;SDS011;57225;61.460;24.060;2023-05-07T16:16:07;5.45;;;1.00;;
61756;SDS011;57225;61.460;24.060;2023-05-07T16:18:52;2.33;;;1.00;;
61756;SDS011;57225;61.460;24.060;2023-05-07T16:21:36;3.17;;;1.40;;
61756;SDS011;57225;61.460;24.060;2023-05-07T16:24:21;2.92;;;1.27;;
61756;SDS011;57225;61.460;24.060;2023-05-07T16:27:06;3.05;;;1.10;;
61756;SDS011;57225;61.460;24.060;2023-05-07T16:29:50;5.07;;;1.48;;
61756;SDS011;57225;61.460;24.060;2023-05-07T16:32:34;3.30;;;1.15;;
61756;SDS011;57225;61.460;24.060;2023-05-07T16:35:19;4.55;;;1.35;;
61756;SDS011;57225;61.460;24.060;2023-05-07T16:38:03;4.57;;;1.20;;
61756;SDS011;57225;61.460;24.060;2023-05-07T16:40:52;4.15;;;1.20;;